Alta, Indiana
Current Conditions -  °F | °C
As of 5:15 PM on Saturday 25 Oct 2014 (Local Time) from KPRG Reporting Station
Clear Clear  
Wind Chill: 25°   Ceiling: Unl
Heat Index: 26°   Visibility: 10mi
Dew Point:   Wind: 13mph
Humidity: 33%   Direction: 300°WNW
Pressure: 29.97"   Gusts: 17mph
Location:  39.7643°N, 87.4119°W
Report Text: KPRG 252115Z AUTO 30011G15KT 10SM CLR 26/08 A2997 RMK AO2 T02550082
Loading
Personal Weather Stations






























Interactive Weather Map New forecast layout! Learn more

10-Day Weather Forecast

Advertisements
Track Severe Weather on mobile